Airfield :
LOGIN :

Register | Disclaimer

   EN    FR    IT 

 










Legend :    VFR   Marginal VFR   IFR   Intensive IFR   Very Intensive IFR
Visi :
Ceiling :
>= 8 km
>= 3000ft
5 to 8 km
1000 to 3000 ft
1500m to 5 km
500 to 1000 ft
800 to 1500m
200 to 500 ft
< 800m
< 200 ft
Symbols :   Thunderstorms  Fog  Heavy snow  Heavy precipitations  Wind > 20 kt
SIGMETs :     Misc.  Thunderstorms  Icing  Turbulence  Mountain Waves  Volcanic Ashes







- Airport Elevation : 453 ft
- IATA code : SBK
- Download approach charts


LFRT - St Brieuc Armor

CURRENT METAR :
  • 241330Z AUTO 21005KT 170V240 9999 -RA BKN008 BKN012 OVC017 18/17 Q1017

EXPIRED METARs :
  • 241300Z AUTO 22005KT 170V260 9999 -RA BKN010 OVC015 18/17 Q1017
  • 241230Z AUTO 20004KT 160V240 9999 OVC009 18/17 Q1017
  • 241200Z AUTO 20005KT 170V240 9999 OVC008 18/16 Q1017
  • 241130Z AUTO 19005KT 160V240 9999 OVC007 17/16 Q1017
  • 241100Z AUTO 17004KT 140V220 9000 BKN007 BKN011 BKN048 17/16 Q1017

Expired Forecast.
No reported NOTAMs for that airfield.



MET'MAP, your aeronautical weather chart ! - Copyright ORBIFLY December 2007 - Disclaimer

ORBIFLY MET'MAP TEAM :

Programming & Development : Alexandra Zaïnal
Concept & Development : Baudouin d'Aumeries
Co-Development & Prog : Marc-Olivier Méhu
Technical & hardware support : Manuel Goepfert

Contact : metmap@orbifly.com




SOURCES & CREDITS :

   NOAA